• Join FlightAware (Why Join?)
  • Login
  • US Flag 
10:49AM EDT


 

Airport Tracker/Info


-or-


 

Live Flight TrackerFlight Track Log ✈ N415JA ✈ 26-Aug-2013 ✈ KJFK - KTEB

Flight Track Log - Related Links

Times and Time Zones

All times are in EDT time to prevent confusion due to time zone crossing. See the N415JA flight status page for this flight to view local times or setup timezone preferences in your user account.

Time Position Orientation Groundspeed Altitude Reporting Facility
EDT Latitude Longitude Course Direction KTS MPH feet Rate Location/Type
06:02PM 40.6167 -73.8667 225° Southwest 240 276 3,500  Level New York TRACON
06:03PM 40.5667 -73.9333 225° Southwest 261 300 4,000 240 Climbing New York TRACON
06:04PM 40.5000 -73.9833 210° Southwest 256 295 4,000  Level New York TRACON
06:06PM 40.7774 -74.0447 229° Southwest  Level Estimated
06:11PM 40.2000 -74.2833 57° Northeast 252 290 4,100  Level New York TRACON
06:12PM 40.2500 -74.3500 315° West 247 284 4,100  Level New York TRACON
06:13PM 40.8500 -74.0500 57° Northeast  Level FlightAware Approximate
06:13PM 40.2833 -74.4167 303° West 248 285 4,100  Level New York TRACON
06:14PM 40.8501 -74.0608 57° Northeast  Level Estimated
06:14PM 40.3333 -74.4833 315° West 248 285 4,100  Level New York TRACON
06:15PM 40.8501 -74.0608 57° Northeast  Level Estimated
06:15PM 40.4000 -74.5167 339° North 251 289 4,100  Level New York TRACON
06:16PM 40.8501 -74.0608 57° Northeast  Level Estimated
06:16PM 40.4667 -74.5500 339° North 260 299 4,100  Level New York TRACON
06:17PM 40.5333 -74.5333 11° North 261 300 4,100  Level New York TRACON
06:18PM 40.6167 -74.5333 360° North 264 304 4,100  Level New York TRACON
06:19PM 40.6833 -74.5167 11° North 260 299 4,100  Level New York TRACON
06:20PM 40.7500 -74.4833 21° North 259 298 4,100  Level New York TRACON
06:21PM 40.8167 -74.4667 11° North 251 289 4,100 -300 Level New York TRACON
06:22PM 40.8833 -74.4333 21° North 236 272 3,600 -540 Descending New York TRACON
06:23PM 40.9500 -74.4167 11° North 218 251 3,100 -300 Descending New York TRACON
06:24PM 40.9667 -74.3500 72° East 216 249 3,100 -180 Level New York TRACON
06:25PM 41.0000 -74.2667 62° Northeast 232 267 2,800 -540 Descending New York TRACON
06:26PM 41.0167 -74.1833 75° East 230 265 2,100 -420 Descending New York TRACON
06:27PM 41.0333 -74.1167 72° East 216 249 2,100  Level New York TRACON
06:28PM 41.0167 -74.0667 114° Southeast 203 234 2,100  Level New York TRACON
06:29PM 40.9667 -74.0500 166° South 174 200 2,100 -360 Level New York TRACON
06:30PM 40.9167 -74.0500 180° South 151 174 1,400 -660 Descending New York TRACON
06:31PM 40.8833 -74.0500 180° South 116 133 800 -600 Descending New York TRACON
06:32PM 40.8500 -74.0667 201° Southwest 123 142 200 -600 Descending New York TRACON
06:34PM 40.8501 -74.0608 90° East  Level Estimated
06:41PM 40.8501 -74.0608 90° East  Level Estimated
06:42PM 40.8501 -74.0608 90° East  Level Estimated